createdAt,value
2019-04-13T00:01:07.552Z,13.63
2019-04-13T00:03:34.995Z,12.97
2019-04-13T00:06:14.516Z,14.97
2019-04-13T00:08:41.964Z,14.00
2019-04-13T00:11:12.099Z,13.13
2019-04-13T00:13:39.530Z,14.43
2019-04-13T00:16:06.961Z,13.60
2019-04-13T00:18:34.405Z,13.27
2019-04-13T00:21:01.863Z,14.67
2019-04-13T00:23:29.286Z,17.23
2019-04-13T00:25:56.977Z,13.87
2019-04-13T00:28:24.386Z,15.37
2019-04-13T00:30:51.817Z,15.23
2019-04-13T00:33:19.237Z,15.73
2019-04-13T00:35:46.690Z,14.00
2019-04-13T00:38:14.102Z,16.90
2019-04-13T00:40:41.518Z,15.17
2019-04-13T00:43:08.970Z,13.50
2019-04-13T00:45:36.419Z,14.93
2019-04-13T00:48:03.824Z,14.80
2019-04-13T00:50:31.252Z,15.10
2019-04-13T00:52:58.671Z,15.20
2019-04-13T00:55:26.361Z,14.70
2019-04-13T00:57:53.781Z,13.40
2019-04-13T01:00:21.231Z,13.63
2019-04-13T01:02:48.655Z,13.07
2019-04-13T01:05:16.093Z,14.70
2019-04-13T01:07:43.501Z,15.70
2019-04-13T01:10:10.946Z,14.93
2019-04-13T01:12:38.394Z,15.70
2019-04-13T01:15:25.442Z,14.83
2019-04-13T01:17:52.913Z,14.43
2019-04-13T01:20:20.335Z,14.43
2019-04-13T01:22:47.784Z,17.07
2019-04-13T01:25:15.231Z,15.77
2019-04-13T01:27:42.673Z,15.17
2019-04-13T01:30:10.127Z,19.67
2019-04-13T01:32:37.567Z,17.03
2019-04-13T01:35:05.991Z,17.13
2019-04-13T01:37:32.425Z,14.47
2019-04-13T01:39:59.857Z,16.90
2019-04-13T01:42:27.263Z,16.03
2019-04-13T01:44:54.696Z,15.83
2019-04-13T01:47:22.138Z,15.37
2019-04-13T01:49:49.570Z,18.17
2019-04-13T01:52:17.004Z,18.87
2019-04-13T01:54:44.422Z,15.63
2019-04-13T01:57:11.886Z,17.80
2019-04-13T01:59:39.300Z,19.03
2019-04-13T02:02:06.753Z,18.73
2019-04-13T02:04:52.619Z,17.07
2019-04-13T02:07:35.347Z,19.20
2019-04-13T02:10:11.807Z,18.87
2019-04-13T02:12:39.227Z,19.10
2019-04-13T02:15:06.647Z,19.80
2019-04-13T02:17:34.096Z,19.53
2019-04-13T02:20:01.519Z,18.97
2019-04-13T02:22:28.974Z,20.47
2019-04-13T02:24:56.386Z,20.63
2019-04-13T02:27:23.802Z,17.93
2019-04-13T02:29:51.252Z,23.63
2019-04-13T02:32:18.666Z,21.37
2019-04-13T02:34:46.081Z,19.13
2019-04-13T02:37:13.516Z,18.37
2019-04-13T02:39:40.945Z,19.77
2019-04-13T02:42:08.378Z,19.33
2019-04-13T02:44:35.825Z,20.80
2019-04-13T02:47:03.307Z,21.37
2019-04-13T02:49:30.707Z,19.97
2019-04-13T02:51:58.136Z,18.17
2019-04-13T02:54:25.584Z,19.63
2019-04-13T02:56:52.994Z,20.87
2019-04-13T02:59:20.450Z,22.00
2019-04-13T03:01:47.863Z,20.73
2019-04-13T03:04:15.278Z,20.77
2019-04-13T03:06:42.718Z,20.53
2019-04-13T03:09:10.148Z,23.17
2019-04-13T03:11:37.566Z,21.47
2019-04-13T03:14:05.003Z,20.30
2019-04-13T03:16:32.413Z,20.10
2019-04-13T03:19:18.129Z,23.50
2019-04-13T03:21:45.554Z,21.17
2019-04-13T03:24:12.987Z,21.10
2019-04-13T03:26:40.421Z,21.00
2019-04-13T03:29:08.928Z,25.87
2019-04-13T03:31:36.341Z,24.97
2019-04-13T03:34:03.753Z,28.27
2019-04-13T03:36:31.203Z,28.47
2019-04-13T03:38:58.613Z,29.60
2019-04-13T03:41:26.040Z,26.57
2019-04-13T03:43:53.478Z,25.03
2019-04-13T03:46:22.268Z,27.03
2019-04-13T03:48:49.720Z,25.63
2019-04-13T03:51:17.148Z,24.63
2019-04-13T03:53:44.583Z,26.03
2019-04-13T03:56:12.034Z,25.17
2019-04-13T03:58:39.497Z,25.27
2019-04-13T04:01:06.916Z,24.10
2019-04-13T04:03:34.323Z,27.93
2019-04-13T04:06:11.166Z,26.33
2019-04-13T04:08:29.247Z,24.97
2019-04-13T04:10:56.692Z,25.17
2019-04-13T04:13:24.105Z,24.67
2019-04-13T04:15:51.531Z,26.17
2019-04-13T04:18:18.938Z,31.57
2019-04-13T04:20:46.387Z,22.83
2019-04-13T04:23:13.814Z,26.40
2019-04-13T04:25:41.278Z,24.13
2019-04-13T04:28:08.692Z,25.30
2019-04-13T04:30:36.127Z,27.30
2019-04-13T04:33:03.546Z,28.37
2019-04-13T04:35:30.995Z,26.10
2019-04-13T04:37:58.411Z,25.13
2019-04-13T04:40:25.855Z,27.37
2019-04-13T04:42:53.260Z,31.27
2019-04-13T04:45:20.720Z,28.00
2019-04-13T04:47:48.142Z,30.27
2019-04-13T04:50:15.561Z,25.87
2019-04-13T04:52:42.997Z,28.50
2019-04-13T04:55:10.430Z,29.97
2019-04-13T04:57:37.857Z,36.93
2019-04-13T05:00:08.085Z,36.43
2019-04-13T05:02:35.493Z,42.87
2019-04-13T05:05:02.954Z,45.13
2019-04-13T05:07:30.361Z,51.57
2019-04-13T05:09:57.778Z,40.53
2019-04-13T05:12:25.220Z,37.13
2019-04-13T05:14:52.654Z,34.63
2019-04-13T05:17:20.086Z,30.77
2019-04-13T05:19:47.513Z,29.10
2019-04-13T05:22:25.661Z,26.70
2019-04-13T05:24:42.389Z,31.60
2019-04-13T05:27:09.822Z,29.37
2019-04-13T05:29:37.250Z,31.30
2019-04-13T05:32:04.657Z,32.47
2019-04-13T05:34:32.101Z,34.30
2019-04-13T05:36:59.507Z,30.80
2019-04-13T05:39:29.077Z,33.93
2019-04-13T05:41:54.392Z,30.67
2019-04-13T05:44:21.883Z,32.30
2019-04-13T05:46:49.329Z,37.57
2019-04-13T05:49:16.749Z,32.50
2019-04-13T05:51:44.181Z,31.57
2019-04-13T05:54:11.612Z,30.87
2019-04-13T05:56:39.048Z,32.00
2019-04-13T05:59:06.486Z,41.30
2019-04-13T06:01:33.919Z,33.47
2019-04-13T06:04:01.421Z,31.50
2019-04-13T06:06:28.861Z,31.60
2019-04-13T06:08:56.279Z,30.93
2019-04-13T06:11:23.711Z,30.33
2019-04-13T06:13:51.134Z,32.27
2019-04-13T06:16:18.575Z,33.97
2019-04-13T06:18:45.995Z,29.17
2019-04-13T06:21:13.458Z,28.63
2019-04-13T06:23:40.879Z,31.60
2019-04-13T06:26:08.299Z,26.43
2019-04-13T06:28:35.726Z,23.97
2019-04-13T06:31:08.804Z,22.30
2019-04-13T06:33:54.616Z,22.57
2019-04-13T06:36:22.058Z,23.50
2019-04-13T06:38:49.495Z,19.67
2019-04-13T06:41:16.939Z,22.17
2019-04-13T06:43:44.352Z,22.20
2019-04-13T06:46:11.780Z,20.57
2019-04-13T06:48:39.217Z,17.70
2019-04-13T06:51:06.653Z,28.57
2019-04-13T06:53:38.324Z,17.00
2019-04-13T06:56:03.041Z,19.73
2019-04-13T06:58:28.941Z,17.90
2019-04-13T07:00:56.362Z,21.13
2019-04-13T07:03:23.804Z,21.43
2019-04-13T07:05:51.235Z,19.67
2019-04-13T07:08:22.290Z,20.20
2019-04-13T07:11:06.844Z,18.33
2019-04-13T07:13:34.361Z,20.27
2019-04-13T07:16:16.923Z,16.63
2019-04-13T07:18:44.353Z,16.97
2019-04-13T07:21:11.774Z,15.27
2019-04-13T07:23:39.209Z,16.07
2019-04-13T07:26:07.259Z,16.20
2019-04-13T07:28:34.089Z,15.97
2019-04-13T07:31:01.823Z,15.80
2019-04-13T07:33:28.926Z,17.50
2019-04-13T07:35:56.370Z,15.33
2019-04-13T07:38:23.806Z,13.90
2019-04-13T07:40:52.030Z,14.93
2019-04-13T07:43:18.659Z,14.60
2019-04-13T07:45:46.056Z,14.53
2019-04-13T07:48:31.507Z,13.97
2019-04-13T07:51:01.840Z,16.77
2019-04-13T07:53:29.295Z,14.57
2019-04-13T07:55:58.260Z,16.90
2019-04-13T07:58:24.136Z,19.43
2019-04-13T08:00:51.593Z,18.80
2019-04-13T08:03:19.024Z,17.67
2019-04-13T08:05:46.482Z,17.57
2019-04-13T08:08:13.956Z,20.23
2019-04-13T08:10:41.436Z,18.47
2019-04-13T08:13:08.858Z,24.13
2019-04-13T08:15:36.384Z,19.40
2019-04-13T08:18:03.803Z,15.90
2019-04-13T08:20:33.933Z,18.60
2019-04-13T08:22:58.850Z,16.40
2019-04-13T08:25:26.223Z,15.30
2019-04-13T08:27:53.668Z,15.63
2019-04-13T08:30:21.071Z,17.27
2019-04-13T08:32:48.492Z,16.70
2019-04-13T08:35:15.936Z,13.35
2019-04-13T08:37:52.546Z,14.37
2019-04-13T08:40:12.184Z,12.43
2019-04-13T08:42:38.272Z,14.50
2019-04-13T08:45:05.682Z,13.67
2019-04-13T08:47:33.192Z,11.47
2019-04-13T08:50:00.551Z,12.70
2019-04-13T08:52:27.984Z,12.83
2019-04-13T08:54:55.420Z,10.77
2019-04-13T08:57:22.853Z,14.47
2019-04-13T08:59:50.309Z,11.40
2019-04-13T09:02:17.715Z,14.40
2019-04-13T09:04:45.151Z,14.43
2019-04-13T09:07:14.970Z,16.63
2019-04-13T09:09:41.349Z,11.43
2019-04-13T09:12:09.921Z,11.93
2019-04-13T09:14:35.109Z,9.60
2019-04-13T09:17:02.265Z,12.17
2019-04-13T09:19:42.369Z,10.90
2019-04-13T09:22:06.973Z,11.17
2019-04-13T09:24:33.510Z,10.27
2019-04-13T09:27:01.009Z,9.63
2019-04-13T09:29:28.397Z,9.83
2019-04-13T09:31:59.143Z,13.03
2019-04-13T09:34:30.526Z,8.57
2019-04-13T09:36:50.677Z,9.80
2019-04-13T09:39:21.593Z,14.77
2019-04-13T09:41:46.827Z,9.83
2019-04-13T09:44:18.749Z,11.03
2019-04-13T09:46:46.173Z,10.83
2019-04-13T09:49:13.596Z,10.40
2019-04-13T09:51:41.022Z,9.27
2019-04-13T09:54:08.422Z,15.13
2019-04-13T09:56:37.602Z,14.70
2019-04-13T09:59:03.307Z,11.00
2019-04-13T10:01:31.232Z,12.00
2019-04-13T10:03:58.162Z,12.37
2019-04-13T10:06:25.597Z,12.83
2019-04-13T10:08:56.092Z,10.53
2019-04-13T10:11:21.084Z,11.60
2019-04-13T10:13:48.593Z,9.63
2019-04-13T10:16:21.113Z,12.87
2019-04-13T10:18:48.532Z,10.43
2019-04-13T10:21:15.969Z,10.37
2019-04-13T10:23:43.432Z,10.30
2019-04-13T10:26:15.619Z,10.90
2019-04-13T10:28:38.284Z,11.07
2019-04-13T10:31:05.698Z,13.10
2019-04-13T10:33:33.145Z,10.53
2019-04-13T10:36:00.589Z,12.30
2019-04-13T10:38:28.013Z,12.77
2019-04-13T10:40:55.488Z,9.73
2019-04-13T10:43:22.861Z,10.57
2019-04-13T10:46:08.558Z,10.63
2019-04-13T10:48:47.925Z,10.73
2019-04-13T10:51:33.816Z,10.10
2019-04-13T10:54:01.118Z,11.93
2019-04-13T10:56:28.518Z,9.50
2019-04-13T10:58:57.666Z,10.33
2019-04-13T11:01:23.391Z,10.77
2019-04-13T11:03:50.836Z,10.23
2019-04-13T11:06:18.234Z,10.77
2019-04-13T11:08:45.676Z,11.90
2019-04-13T11:11:13.084Z,10.13
2019-04-13T11:13:40.556Z,10.50
2019-04-13T11:16:07.966Z,10.07
2019-04-13T11:18:37.008Z,10.70
2019-04-13T11:21:02.981Z,9.73
2019-04-13T11:23:35.855Z,10.00
2019-04-13T11:25:58.078Z,12.27
2019-04-13T11:28:25.093Z,9.70
2019-04-13T11:30:52.550Z,9.10
2019-04-13T11:33:20.674Z,9.17
2019-04-13T11:35:47.407Z,8.90
2019-04-13T11:38:18.474Z,11.93
2019-04-13T11:40:42.325Z,9.67
2019-04-13T11:43:28.113Z,13.47
2019-04-13T11:45:58.620Z,9.27
2019-04-13T11:48:25.640Z,11.07
2019-04-13T11:50:59.950Z,9.13
2019-04-13T11:53:26.125Z,10.43
2019-04-13T11:55:53.567Z,10.90
2019-04-13T11:58:20.994Z,9.33
2019-04-13T12:00:51.111Z,12.10
2019-04-13T12:03:46.948Z,10.33
2019-04-13T12:06:34.468Z,10.30
2019-04-13T12:09:05.482Z,13.30
2019-04-13T12:11:38.942Z,11.53
2019-04-13T12:14:06.370Z,8.00
2019-04-13T12:16:36.766Z,14.53
2019-04-13T12:19:04.192Z,8.00
2019-04-13T12:21:40.680Z,12.33
2019-04-13T12:24:23.212Z,7.70
2019-04-13T12:26:50.620Z,8.40
2019-04-13T12:29:18.063Z,10.37
2019-04-13T12:31:45.477Z,9.53
2019-04-13T12:34:12.922Z,11.93
2019-04-13T12:36:40.323Z,9.37
2019-04-13T12:39:07.898Z,8.77
2019-04-13T12:41:53.252Z,9.97
2019-04-13T12:44:20.702Z,11.10
2019-04-13T12:46:48.126Z,8.73
2019-04-13T12:49:15.536Z,8.50
2019-04-13T12:51:42.976Z,8.63
2019-04-13T12:54:10.407Z,7.10
2019-04-13T12:56:37.849Z,8.13
2019-04-13T12:59:05.286Z,8.20
2019-04-13T13:01:33.561Z,6.80
2019-04-13T13:04:00.988Z,6.47
2019-04-13T13:06:31.725Z,7.17
2019-04-13T13:08:55.839Z,6.57
2019-04-13T13:11:23.683Z,7.60
2019-04-13T13:13:52.890Z,6.80
2019-04-13T13:16:18.119Z,7.93
2019-04-13T13:18:45.530Z,10.23
2019-04-13T13:21:12.987Z,7.30
2019-04-13T13:23:40.390Z,9.07
2019-04-13T13:26:07.804Z,7.33
2019-04-13T13:28:35.226Z,8.87
2019-04-13T13:31:02.650Z,8.93
2019-04-13T13:33:30.082Z,9.83
2019-04-13T13:35:57.493Z,7.17
2019-04-13T13:38:24.928Z,11.43
2019-04-13T13:40:52.395Z,8.27
2019-04-13T13:43:19.823Z,6.37
2019-04-13T13:45:47.234Z,5.87
2019-04-13T13:48:14.701Z,8.70
2019-04-13T13:50:42.125Z,11.13
2019-04-13T13:53:10.725Z,6.87
2019-04-13T13:55:36.983Z,8.40
2019-04-13T13:58:04.412Z,9.63
2019-04-13T14:00:44.000Z,12.07
2019-04-13T14:03:11.439Z,6.03
2019-04-13T14:05:38.875Z,8.80
2019-04-13T14:08:06.291Z,8.73
2019-04-13T14:10:42.578Z,7.37
2019-04-13T14:13:01.129Z,8.57
2019-04-13T14:15:28.565Z,6.63
2019-04-13T14:17:55.998Z,6.60
2019-04-13T14:20:23.446Z,6.57
2019-04-13T14:22:50.832Z,13.20
2019-04-13T14:25:18.238Z,9.47
2019-04-13T14:27:45.688Z,6.20
2019-04-13T14:30:13.086Z,6.77
2019-04-13T14:32:40.497Z,7.03
2019-04-13T14:35:07.933Z,7.87
2019-04-13T14:37:35.330Z,8.53
2019-04-13T14:40:03.470Z,9.70
2019-04-13T14:42:30.210Z,7.30
2019-04-13T14:44:57.608Z,9.20
2019-04-13T14:47:25.017Z,8.97
2019-04-13T14:49:52.471Z,6.07
2019-04-13T14:52:20.163Z,7.70
2019-04-13T14:54:49.953Z,8.07
2019-04-13T14:57:15.027Z,6.33
2019-04-13T14:59:42.468Z,6.10
2019-04-13T15:02:09.855Z,5.37
2019-04-13T15:04:40.664Z,6.53
2019-04-13T15:07:04.696Z,5.10
2019-04-13T15:09:32.102Z,6.07
2019-04-13T15:11:59.510Z,6.27
2019-04-13T15:14:28.040Z,10.77
2019-04-13T15:16:58.468Z,7.53
2019-04-13T15:19:31.208Z,7.23
2019-04-13T15:21:50.187Z,7.83
2019-04-13T15:24:19.423Z,7.00
2019-04-13T15:26:45.508Z,11.50
2019-04-13T15:29:16.315Z,9.77
2019-04-13T15:31:39.894Z,9.77
2019-04-13T15:34:07.359Z,7.73
2019-04-13T15:36:34.125Z,8.20
2019-04-13T15:39:04.186Z,9.13
2019-04-13T15:41:36.355Z,7.57
2019-04-13T15:43:56.164Z,8.00
2019-04-13T15:46:27.343Z,6.80
2019-04-13T15:48:51.704Z,7.73
2019-04-13T15:51:19.969Z,6.67
2019-04-13T15:53:47.362Z,7.57
2019-04-13T15:56:13.782Z,6.33
2019-04-13T15:58:42.464Z,5.90
2019-04-13T16:01:08.872Z,5.77
2019-04-13T16:03:36.240Z,7.53
2019-04-13T16:06:04.654Z,8.27
2019-04-13T16:08:30.924Z,6.43
2019-04-13T16:10:59.494Z,8.13
2019-04-13T16:13:26.229Z,6.53
2019-04-13T16:15:54.556Z,6.83
2019-04-13T16:18:21.791Z,6.63
2019-04-13T16:20:48.799Z,5.90
2019-04-13T16:23:15.494Z,6.50
2019-04-13T16:25:42.905Z,5.47
2019-04-13T16:28:12.054Z,7.20
2019-04-13T16:30:41.362Z,6.30
2019-04-13T16:33:15.120Z,5.70
2019-04-13T16:35:45.226Z,7.17
2019-04-13T16:38:11.865Z,5.63
2019-04-13T16:40:39.415Z,6.73
2019-04-13T16:43:07.916Z,7.73
2019-04-13T16:45:42.699Z,6.53
2019-04-13T16:48:23.200Z,5.87
2019-04-13T16:51:07.906Z,5.23
2019-04-13T16:53:47.549Z,6.73
2019-04-13T16:56:18.651Z,7.37
2019-04-13T16:58:51.329Z,6.00
2019-04-13T17:01:27.706Z,5.77
2019-04-13T17:04:13.703Z,5.90
2019-04-13T17:06:41.927Z,6.93
2019-04-13T17:09:08.534Z,6.20
2019-04-13T17:11:36.285Z,6.97
2019-04-13T17:14:04.029Z,12.87
2019-04-13T17:16:31.701Z,8.10
2019-04-13T17:18:59.053Z,10.03
2019-04-13T17:21:35.663Z,8.43
2019-04-13T17:24:02.983Z,6.90
2019-04-13T17:26:31.769Z,7.13
2019-04-13T17:29:02.458Z,8.80
2019-04-13T17:31:32.784Z,7.13
2019-04-13T17:34:02.782Z,6.30
2019-04-13T17:36:31.221Z,7.93
2019-04-13T17:38:57.881Z,9.73
2019-04-13T17:41:38.241Z,9.13
2019-04-13T17:44:05.985Z,8.40
2019-04-13T17:46:50.290Z,9.67
2019-04-13T17:49:36.346Z,7.03
2019-04-13T17:52:21.535Z,7.13
2019-04-13T17:54:49.671Z,7.20
2019-04-13T17:57:16.456Z,7.73
2019-04-13T17:59:50.790Z,9.03
2019-04-13T18:02:36.244Z,8.60
2019-04-13T18:05:04.336Z,10.20
2019-04-13T18:07:48.811Z,10.10
2019-04-13T18:10:34.268Z,9.77
2019-04-13T18:13:17.740Z,9.83
2019-04-13T18:16:03.938Z,7.77
2019-04-13T18:18:31.065Z,9.40
2019-04-13T18:20:59.297Z,8.63
2019-04-13T18:23:25.665Z,9.20
2019-04-13T18:25:56.190Z,8.83
2019-04-13T18:28:20.517Z,8.70
2019-04-13T18:30:48.405Z,9.27
2019-04-13T18:33:16.000Z,8.17
2019-04-13T18:35:45.517Z,9.57
2019-04-13T18:38:10.317Z,9.20
2019-04-13T18:40:38.626Z,8.13
2019-04-13T18:43:12.503Z,9.73
2019-04-13T18:45:32.948Z,10.70
2019-04-13T18:47:59.993Z,10.43
2019-04-13T18:50:27.398Z,9.90
2019-04-13T18:52:55.254Z,9.63
2019-04-13T18:55:22.362Z,8.80
2019-04-13T18:57:50.407Z,9.23
2019-04-13T19:00:19.445Z,11.10
2019-04-13T19:02:46.135Z,8.90
2019-04-13T19:05:13.522Z,14.87
2019-04-13T19:07:40.965Z,12.60
2019-04-13T19:10:08.407Z,9.20
2019-04-13T19:12:35.822Z,9.57
2019-04-13T19:15:03.257Z,9.77
2019-04-13T19:17:30.669Z,12.50
2019-04-13T19:19:58.119Z,9.27
2019-04-13T19:22:25.554Z,7.70
2019-04-13T19:24:52.972Z,11.73
2019-04-13T19:27:20.411Z,8.47
2019-04-13T19:29:47.823Z,10.27
2019-04-13T19:32:15.314Z,10.33
2019-04-13T19:34:44.987Z,9.70
2019-04-13T19:37:10.877Z,13.73
2019-04-13T19:39:38.304Z,9.77
2019-04-13T19:42:05.796Z,12.00
2019-04-13T19:44:33.149Z,9.03
2019-04-13T19:47:00.583Z,10.07
2019-04-13T19:49:28.822Z,10.13
2019-04-13T19:51:59.090Z,12.87
2019-04-13T19:54:26.547Z,11.60
2019-04-13T19:56:54.022Z,11.50
2019-04-13T19:59:21.458Z,11.10
2019-04-13T20:01:48.904Z,13.17
2019-04-13T20:04:16.337Z,13.37
2019-04-13T20:06:43.802Z,11.13
2019-04-13T20:09:11.210Z,12.17
2019-04-13T20:11:38.641Z,12.83
2019-04-13T20:14:10.706Z,11.13
2019-04-13T20:16:34.017Z,11.40
2019-04-13T20:19:00.930Z,14.97
2019-04-13T20:21:28.372Z,10.83
2019-04-13T20:23:55.805Z,12.30
2019-04-13T20:26:23.249Z,11.10
2019-04-13T20:28:50.659Z,13.40
2019-04-13T20:31:18.261Z,12.73
2019-04-13T20:33:46.070Z,11.50
2019-04-13T20:36:17.526Z,12.77
2019-04-13T20:38:41.154Z,10.83
2019-04-13T20:41:14.918Z,12.90
2019-04-13T20:43:48.939Z,12.90
2019-04-13T20:46:08.723Z,13.50
2019-04-13T20:48:36.158Z,13.53
2019-04-13T20:51:04.025Z,11.40
2019-04-13T20:53:31.095Z,11.90
2019-04-13T20:55:58.906Z,14.00
2019-04-13T20:58:26.842Z,16.87
2019-04-13T21:00:53.333Z,13.53
2019-04-13T21:03:20.815Z,12.67
2019-04-13T21:05:51.257Z,14.43
2019-04-13T21:08:19.301Z,12.03
2019-04-13T21:10:45.695Z,15.20
2019-04-13T21:13:13.135Z,13.20
2019-04-13T21:15:40.584Z,13.07
2019-04-13T21:18:08.003Z,13.27
2019-04-13T21:20:36.045Z,13.57
2019-04-13T21:23:03.888Z,13.93
2019-04-13T21:25:31.519Z,13.37
2019-04-13T21:27:57.866Z,14.17
2019-04-13T21:30:25.286Z,15.10
2019-04-13T21:32:53.014Z,16.30
2019-04-13T21:35:21.054Z,17.17
2019-04-13T21:37:48.635Z,14.13
2019-04-13T21:40:15.069Z,13.07
2019-04-13T21:42:42.843Z,15.63
2019-04-13T21:45:10.355Z,18.67
2019-04-13T21:47:38.276Z,14.33
2019-04-13T21:50:21.747Z,12.80
2019-04-13T21:52:48.014Z,13.60
2019-04-13T21:55:33.612Z,14.37
2019-04-13T21:58:01.291Z,14.67
2019-04-13T22:00:29.095Z,14.27
2019-04-13T22:02:59.169Z,14.87
2019-04-13T22:05:24.543Z,14.33
2019-04-13T22:07:50.871Z,13.83
2019-04-13T22:10:18.314Z,14.83
2019-04-13T22:12:46.056Z,13.33
2019-04-13T22:15:15.224Z,15.50
2019-04-13T22:17:40.598Z,13.60
2019-04-13T22:20:08.159Z,14.43
2019-04-13T22:22:35.694Z,14.27
2019-04-13T22:25:03.778Z,16.67
2019-04-13T22:27:42.629Z,21.53
2019-04-13T22:29:57.742Z,13.33
2019-04-13T22:32:25.517Z,16.20
2019-04-13T22:35:02.361Z,16.20
2019-04-13T22:37:29.917Z,17.33
2019-04-13T22:39:57.580Z,16.17
2019-04-13T22:42:25.139Z,16.37
2019-04-13T22:44:58.102Z,16.83
2019-04-13T22:47:18.925Z,19.53
2019-04-13T22:49:47.321Z,20.73
2019-04-13T22:52:14.766Z,17.57
2019-04-13T22:54:41.164Z,23.03
2019-04-13T22:57:26.648Z,18.20
2019-04-13T22:59:54.083Z,16.03
2019-04-13T23:02:27.770Z,17.47
2019-04-13T23:04:55.923Z,15.70
2019-04-13T23:07:24.660Z,16.07
2019-04-13T23:09:50.593Z,16.27
2019-04-13T23:12:18.040Z,15.60
2019-04-13T23:14:59.143Z,14.53
2019-04-13T23:17:13.764Z,16.20
2019-04-13T23:19:41.358Z,17.87
2019-04-13T23:22:08.026Z,17.10
2019-04-13T23:24:36.332Z,17.30
2019-04-13T23:27:02.709Z,16.67
2019-04-13T23:29:30.443Z,20.20
2019-04-13T23:31:58.688Z,16.90
2019-04-13T23:34:25.319Z,17.73
2019-04-13T23:36:52.968Z,16.70
2019-04-13T23:39:21.257Z,16.03
2019-04-13T23:41:49.476Z,17.73
2019-04-13T23:44:16.531Z,17.73
2019-04-13T23:46:44.046Z,18.93
2019-04-13T23:49:12.302Z,17.03
2019-04-13T23:51:38.851Z,16.53
2019-04-13T23:54:08.593Z,18.23
2019-04-13T23:56:41.271Z,18.17
2019-04-13T23:59:26.405Z,17.17
